Terminal Aerodrome Forecast
Issued by NWS Charleston, WV

Current Version | Previous Version | Text Only | Print | Product List | Glossary Off
Versions: 1 2 3 4 5 6 7 8 9 10 11 12 13 14 15 16 17 18 19 20 21 22 23

000
FTUS41 KRLX 181100
TAFHTS
TAF
KHTS 181140Z 1812/1912 00000KT P6SM BKN100 BKN120
     FM181300 00000KT 4SM BR FEW022
     FM181400 VRB03KT P6SM SKC
     FM190900 00000KT 4SM BR BKN001=

USA.gov is the U.S. government's official web portal to all federal, state and local government web resources and services.